createdAt,value
2023-12-27T00:00:33.479Z,94.387
2023-12-27T00:01:34.311Z,94.439
2023-12-27T00:02:34.750Z,94.486
2023-12-27T00:04:34.141Z,94.534
2023-12-27T00:05:33.389Z,94.607
2023-12-27T00:06:34.010Z,94.572
2023-12-27T00:07:33.309Z,94.841
2023-12-27T00:09:33.523Z,94.784
2023-12-27T00:10:33.737Z,95.087
2023-12-27T00:11:33.709Z,94.963
2023-12-27T00:12:34.197Z,94.755
2023-12-27T00:13:33.300Z,94.839
2023-12-27T00:14:33.134Z,94.952
2023-12-27T00:15:34.466Z,95.139
2023-12-27T00:16:33.515Z,95.242
2023-12-27T00:19:34.221Z,94.895
2023-12-27T00:20:33.546Z,95.104
2023-12-27T00:21:33.462Z,94.690
2023-12-27T00:22:33.542Z,95.009
2023-12-27T00:23:33.562Z,95.268
2023-12-27T00:24:33.745Z,95.032
2023-12-27T00:25:34.048Z,95.085
2023-12-27T00:26:33.975Z,95.261
2023-12-27T00:27:34.168Z,95.307
2023-12-27T00:28:33.322Z,95.186
2023-12-27T00:29:33.165Z,95.404
2023-12-27T00:30:34.419Z,95.429
2023-12-27T00:31:33.558Z,95.480
2023-12-27T00:32:34.082Z,95.310
2023-12-27T00:33:34.053Z,95.553
2023-12-27T00:34:34.416Z,95.656
2023-12-27T00:35:33.814Z,95.598
2023-12-27T00:36:35.021Z,95.488
2023-12-27T00:37:33.285Z,95.453
2023-12-27T00:38:33.124Z,95.499
2023-12-27T00:39:34.343Z,95.495
2023-12-27T00:40:33.462Z,95.280
2023-12-27T00:41:33.451Z,95.274
2023-12-27T00:42:34.189Z,95.247
2023-12-27T00:43:33.455Z,95.291
2023-12-27T00:44:33.430Z,95.238
2023-12-27T00:45:33.592Z,95.061
2023-12-27T00:46:33.760Z,95.101
2023-12-27T00:47:34.117Z,95.175
2023-12-27T00:48:33.420Z,95.112
2023-12-27T00:49:34.280Z,95.156
2023-12-27T00:50:33.448Z,94.984
2023-12-27T00:51:33.571Z,94.870
2023-12-27T00:52:33.730Z,94.977
2023-12-27T00:53:33.563Z,94.988
2023-12-27T00:54:33.564Z,94.961
2023-12-27T00:55:34.176Z,95.036
2023-12-27T00:56:33.229Z,94.832
2023-12-27T00:57:33.208Z,95.034
2023-12-27T00:58:33.256Z,95.240
2023-12-27T00:59:34.118Z,95.364
2023-12-27T01:00:34.579Z,95.184
2023-12-27T01:01:33.570Z,95.453
2023-12-27T01:02:33.367Z,95.400
2023-12-27T01:03:33.568Z,95.369
2023-12-27T01:04:34.596Z,95.530
2023-12-27T01:05:33.741Z,95.587
2023-12-27T01:06:33.771Z,95.852
2023-12-27T01:07:33.951Z,95.902
2023-12-27T01:08:33.780Z,96.102
2023-12-27T01:09:34.303Z,96.150
2023-12-27T01:11:33.461Z,95.986
2023-12-27T01:12:34.097Z,95.774
2023-12-27T01:13:33.161Z,95.661
2023-12-27T01:14:34.080Z,96.081
2023-12-27T01:15:34.257Z,96.333
2023-12-27T01:17:33.538Z,96.686
2023-12-27T01:18:34.447Z,96.598
2023-12-27T01:19:34.336Z,96.750
2023-12-27T01:20:33.419Z,96.710
2023-12-27T01:21:33.675Z,96.897
2023-12-27T01:22:33.964Z,96.991
2023-12-27T01:25:33.193Z,96.714
2023-12-27T01:26:34.142Z,96.960
2023-12-27T01:27:34.344Z,96.951
2023-12-27T01:28:33.472Z,97.006
2023-12-27T01:29:33.297Z,96.937
2023-12-27T01:30:33.550Z,96.804
2023-12-27T01:31:33.979Z,96.916
2023-12-27T01:32:33.475Z,96.987
2023-12-27T01:33:34.361Z,96.728
2023-12-27T01:34:38.635Z,96.855
2023-12-27T01:35:34.055Z,96.684
2023-12-27T01:36:34.146Z,96.686
2023-12-27T01:39:33.991Z,97.065
2023-12-27T01:40:33.224Z,96.697
2023-12-27T01:41:34.162Z,96.873
2023-12-27T01:42:34.223Z,96.907
2023-12-27T01:43:33.296Z,96.768
2023-12-27T01:44:33.105Z,96.880
2023-12-27T01:45:34.399Z,96.995
2023-12-27T01:47:33.606Z,96.899
2023-12-27T01:48:34.689Z,96.672
2023-12-27T01:49:33.700Z,96.882
2023-12-27T01:50:33.935Z,97.019
2023-12-27T01:51:34.339Z,96.976
2023-12-27T01:52:33.574Z,96.903
2023-12-27T01:54:33.675Z,96.823
2023-12-27T01:55:33.783Z,96.991
2023-12-27T01:56:33.742Z,96.956
2023-12-27T01:57:34.012Z,96.935
2023-12-27T01:58:33.589Z,97.016
2023-12-27T01:59:33.469Z,96.914
2023-12-27T02:00:33.831Z,96.892
2023-12-27T02:01:34.297Z,96.808
2023-12-27T02:02:33.226Z,97.014
2023-12-27T02:03:34.557Z,97.050
2023-12-27T02:04:34.157Z,96.941
2023-12-27T02:05:33.452Z,97.103
2023-12-27T02:06:33.779Z,97.019
2023-12-27T02:07:38.751Z,96.956
2023-12-27T02:08:33.562Z,97.029
2023-12-27T02:09:33.825Z,96.949
2023-12-27T02:10:33.954Z,96.893
2023-12-27T02:12:34.030Z,96.966
2023-12-27T02:13:33.163Z,96.857
2023-12-27T02:14:34.109Z,96.886
2023-12-27T02:15:34.282Z,96.976
2023-12-27T02:16:33.583Z,97.201
2023-12-27T02:17:33.810Z,97.147
2023-12-27T02:18:34.612Z,97.140
2023-12-27T02:19:34.306Z,97.098
2023-12-27T02:20:33.387Z,97.033
2023-12-27T02:21:33.640Z,97.033
2023-12-27T02:22:33.772Z,96.966
2023-12-27T02:23:33.713Z,96.979
2023-12-27T02:24:33.949Z,96.871
2023-12-27T02:25:33.994Z,96.850
2023-12-27T02:26:33.923Z,96.726
2023-12-27T02:27:34.112Z,96.649
2023-12-27T02:28:34.286Z,96.674
2023-12-27T02:29:33.311Z,96.543
2023-12-27T02:30:33.508Z,96.565
2023-12-27T02:31:34.378Z,96.584
2023-12-27T02:33:35.159Z,96.672
2023-12-27T02:34:34.081Z,96.581
2023-12-27T02:35:34.121Z,96.493
2023-12-27T02:36:33.592Z,96.348
2023-12-27T02:37:33.651Z,96.409
2023-12-27T02:38:33.949Z,96.359
2023-12-27T02:39:34.245Z,96.371
2023-12-27T02:40:33.265Z,96.264
2023-12-27T02:41:33.363Z,96.308
2023-12-27T02:42:33.352Z,96.230
2023-12-27T02:43:33.382Z,96.188
2023-12-27T02:44:33.280Z,96.262
2023-12-27T02:45:33.410Z,96.211
2023-12-27T02:46:33.423Z,96.235
2023-12-27T02:47:33.446Z,96.258
2023-12-27T02:48:34.344Z,96.289
2023-12-27T02:49:34.459Z,96.405
2023-12-27T02:50:33.379Z,96.403
2023-12-27T02:51:33.809Z,96.388
2023-12-27T02:53:33.571Z,96.260
2023-12-27T02:54:33.938Z,96.255
2023-12-27T02:56:33.739Z,96.440
2023-12-27T02:57:33.707Z,96.379
2023-12-27T02:58:33.567Z,96.361
2023-12-27T02:59:33.549Z,96.348
2023-12-27T03:00:33.793Z,96.323
2023-12-27T03:01:33.277Z,96.312
2023-12-27T03:02:33.505Z,96.235
2023-12-27T03:03:34.424Z,96.239
2023-12-27T03:04:34.188Z,96.188
2023-12-27T03:05:33.664Z,96.180
2023-12-27T03:06:34.245Z,96.159
2023-12-27T03:07:33.538Z,96.121
2023-12-27T03:08:33.495Z,96.125
2023-12-27T03:09:33.544Z,96.180
2023-12-27T03:10:33.563Z,96.192
2023-12-27T03:11:33.443Z,96.388
2023-12-27T03:12:33.602Z,96.462
2023-12-27T03:13:33.631Z,96.483
2023-12-27T03:14:33.531Z,96.668
2023-12-27T03:15:33.645Z,96.695
2023-12-27T03:16:33.875Z,96.886
2023-12-27T03:17:34.022Z,96.863
2023-12-27T03:18:34.676Z,96.764
2023-12-27T03:19:34.298Z,96.832
2023-12-27T03:20:33.433Z,96.899
2023-12-27T03:21:33.432Z,96.953
2023-12-27T03:22:33.408Z,96.861
2023-12-27T03:23:33.246Z,96.897
2023-12-27T03:24:34.512Z,96.775
2023-12-27T03:25:33.561Z,96.792
2023-12-27T03:26:33.391Z,96.640
2023-12-27T03:27:33.409Z,96.552
2023-12-27T03:28:33.471Z,96.352
2023-12-27T03:29:33.295Z,96.255
2023-12-27T03:30:33.626Z,96.344
2023-12-27T03:31:34.414Z,96.375
2023-12-27T03:32:33.607Z,96.426
2023-12-27T03:33:34.618Z,96.632
2023-12-27T03:34:35.008Z,96.638
2023-12-27T03:35:33.294Z,96.489
2023-12-27T03:36:33.381Z,96.375
2023-12-27T03:37:33.703Z,96.398
2023-12-27T03:39:33.957Z,96.302
2023-12-27T03:40:33.266Z,96.155
2023-12-27T03:41:33.320Z,96.276
2023-12-27T03:42:33.597Z,96.214
2023-12-27T03:43:33.887Z,96.224
2023-12-27T03:44:33.852Z,96.077
2023-12-27T03:45:34.030Z,96.110
2023-12-27T03:46:33.494Z,96.188
2023-12-27T03:47:33.712Z,96.094
2023-12-27T03:48:34.607Z,96.081
2023-12-27T03:49:34.582Z,96.071
2023-12-27T03:50:33.726Z,95.980
2023-12-27T03:51:34.002Z,96.098
2023-12-27T03:52:33.288Z,96.182
2023-12-27T03:53:33.939Z,96.148
2023-12-27T03:54:34.294Z,96.182
2023-12-27T03:55:33.570Z,96.039
2023-12-27T03:57:33.741Z,96.138
2023-12-27T03:58:33.734Z,96.022
2023-12-27T03:59:33.510Z,96.113
2023-12-27T04:00:33.722Z,96.062
2023-12-27T04:01:34.045Z,95.993
2023-12-27T04:02:34.156Z,96.104
2023-12-27T04:03:36.319Z,96.028
2023-12-27T04:04:33.426Z,96.043
2023-12-27T04:05:33.644Z,95.915
2023-12-27T04:06:33.861Z,96.121
2023-12-27T04:07:33.964Z,96.020
2023-12-27T04:09:33.765Z,95.997
2023-12-27T04:10:34.007Z,96.014
2023-12-27T04:11:33.824Z,96.138
2023-12-27T04:12:34.245Z,96.152
2023-12-27T04:13:33.931Z,96.144
2023-12-27T04:14:33.821Z,96.134
2023-12-27T04:15:33.971Z,96.113
2023-12-27T04:16:33.361Z,96.121
2023-12-27T04:17:33.689Z,96.150
2023-12-27T04:18:34.777Z,96.205
2023-12-27T04:19:33.549Z,96.182
2023-12-27T04:20:33.928Z,96.283
2023-12-27T04:21:34.330Z,96.255
2023-12-27T04:22:33.452Z,96.199
2023-12-27T04:23:33.428Z,96.203
2023-12-27T04:24:33.796Z,96.213
2023-12-27T04:25:33.879Z,96.197
2023-12-27T04:26:33.841Z,96.213
2023-12-27T04:27:34.088Z,96.356
2023-12-27T04:30:34.384Z,96.487
2023-12-27T04:31:33.524Z,96.522
2023-12-27T04:32:33.338Z,96.518
2023-12-27T04:33:33.801Z,96.605
2023-12-27T04:34:34.521Z,96.506
2023-12-27T04:35:33.694Z,96.522
2023-12-27T04:36:33.589Z,96.455
2023-12-27T04:37:33.830Z,96.783
2023-12-27T04:38:33.912Z,96.846
2023-12-27T04:39:33.942Z,96.901
2023-12-27T04:40:33.929Z,96.945
2023-12-27T04:41:33.733Z,96.901
2023-12-27T04:42:33.969Z,96.882
2023-12-27T04:43:34.030Z,97.111
2023-12-27T04:44:33.826Z,97.119
2023-12-27T04:45:34.192Z,97.195
2023-12-27T04:46:33.341Z,97.288
2023-12-27T04:47:33.472Z,97.521
2023-12-27T04:48:34.061Z,97.559
2023-12-27T04:49:34.526Z,97.481
2023-12-27T04:50:33.496Z,97.487
2023-12-27T04:51:36.619Z,97.515
2023-12-27T04:52:33.937Z,97.700
2023-12-27T04:53:33.841Z,97.775
2023-12-27T04:54:34.416Z,97.782
2023-12-27T04:56:33.471Z,97.992
2023-12-27T04:57:33.660Z,98.049
2023-12-27T04:58:33.899Z,98.274
2023-12-27T04:59:33.839Z,98.057
2023-12-27T05:00:34.425Z,98.223
2023-12-27T05:01:33.826Z,98.356
2023-12-27T05:02:33.800Z,98.309
2023-12-27T05:03:33.860Z,98.107
2023-12-27T05:04:33.640Z,98.257
2023-12-27T05:05:33.811Z,98.351
2023-12-27T05:06:33.643Z,98.414
2023-12-27T05:07:33.649Z,98.494
2023-12-27T05:08:33.519Z,98.486
2023-12-27T05:09:33.466Z,98.500
2023-12-27T05:12:33.978Z,98.576
2023-12-27T05:13:34.051Z,98.595
2023-12-27T05:14:33.895Z,98.532
2023-12-27T05:15:34.017Z,98.644
2023-12-27T05:16:33.063Z,98.660
2023-12-27T05:17:34.178Z,98.625
2023-12-27T05:18:33.496Z,98.612
2023-12-27T05:19:34.080Z,98.631
2023-12-27T05:20:34.078Z,98.532
2023-12-27T05:21:34.300Z,98.616
2023-12-27T05:22:33.386Z,98.526
2023-12-27T05:23:33.217Z,98.532
2023-12-27T05:24:34.165Z,98.479
2023-12-27T05:25:33.437Z,98.639
2023-12-27T05:26:33.386Z,98.629
2023-12-27T05:27:33.501Z,98.644
2023-12-27T05:28:33.627Z,98.501
2023-12-27T05:29:35.809Z,98.572
2023-12-27T05:30:34.339Z,98.576
2023-12-27T05:31:33.943Z,98.635
2023-12-27T05:33:34.330Z,98.572
2023-12-27T05:34:34.548Z,98.658
2023-12-27T05:35:33.822Z,98.625
2023-12-27T05:36:34.134Z,98.677
2023-12-27T05:37:33.386Z,98.683
2023-12-27T05:38:33.447Z,98.717
2023-12-27T05:39:33.745Z,98.696
2023-12-27T05:40:33.901Z,98.671
2023-12-27T05:41:33.949Z,98.662
2023-12-27T05:42:34.358Z,98.717
2023-12-27T05:43:33.461Z,98.698
2023-12-27T05:44:33.351Z,98.814
2023-12-27T05:46:33.204Z,98.732
2023-12-27T05:47:33.996Z,98.852
2023-12-27T05:48:34.622Z,98.820
2023-12-27T05:49:34.191Z,98.795
2023-12-27T05:50:33.475Z,98.873
2023-12-27T05:51:33.652Z,98.826
2023-12-27T05:52:33.829Z,98.791
2023-12-27T05:53:33.694Z,98.820
2023-12-27T05:54:34.288Z,98.667
2023-12-27T05:55:33.343Z,98.788
2023-12-27T05:56:33.147Z,98.913
2023-12-27T05:57:34.153Z,98.904
2023-12-27T05:58:33.192Z,98.887
2023-12-27T06:00:33.378Z,98.862
2023-12-27T06:01:33.999Z,98.995
2023-12-27T06:02:34.021Z,98.980
2023-12-27T06:03:34.436Z,98.961
2023-12-27T06:04:33.694Z,99.047
2023-12-27T06:05:34.525Z,99.020
2023-12-27T06:06:33.776Z,99.077
2023-12-27T06:07:33.941Z,99.020
2023-12-27T06:08:33.950Z,99.045
2023-12-27T06:09:33.971Z,99.039
2023-12-27T06:10:33.988Z,98.955
2023-12-27T06:11:33.927Z,98.978
2023-12-27T06:12:34.094Z,99.062
2023-12-27T06:13:34.145Z,99.119
2023-12-27T06:14:34.053Z,99.032
2023-12-27T06:15:34.177Z,99.119
2023-12-27T06:16:33.294Z,99.131
2023-12-27T06:19:35.190Z,99.312
2023-12-27T06:20:33.383Z,99.304
2023-12-27T06:21:33.291Z,99.293
2023-12-27T06:22:33.358Z,99.360
2023-12-27T06:23:33.228Z,99.341
2023-12-27T06:24:33.286Z,99.365
2023-12-27T06:25:33.358Z,99.381
2023-12-27T06:26:33.220Z,99.404
2023-12-27T06:27:33.281Z,99.392
2023-12-27T06:28:33.407Z,99.428
2023-12-27T06:29:33.218Z,99.539
2023-12-27T06:30:34.843Z,99.484
2023-12-27T06:31:34.577Z,99.488
2023-12-27T06:32:33.824Z,99.417
2023-12-27T06:33:34.705Z,99.396
2023-12-27T06:34:34.258Z,99.409
2023-12-27T06:35:33.402Z,99.346
2023-12-27T06:36:33.351Z,99.360
2023-12-27T06:37:34.267Z,99.360
2023-12-27T06:38:33.250Z,99.327
2023-12-27T06:39:33.224Z,99.259
2023-12-27T06:40:33.392Z,99.230
2023-12-27T06:41:33.449Z,99.232
2023-12-27T06:42:33.649Z,99.148
2023-12-27T06:43:37.182Z,99.110
2023-12-27T06:44:34.083Z,99.095
2023-12-27T06:45:34.145Z,99.060
2023-12-27T06:46:33.385Z,98.982
2023-12-27T06:47:33.410Z,98.967
2023-12-27T06:48:34.409Z,98.963
2023-12-27T06:49:34.779Z,98.944
2023-12-27T06:50:34.128Z,98.927
2023-12-27T06:51:34.324Z,98.931
2023-12-27T06:52:33.545Z,98.929
2023-12-27T06:53:33.496Z,98.919
2023-12-27T06:54:33.723Z,98.862
2023-12-27T06:55:34.022Z,98.826
2023-12-27T06:56:33.968Z,98.812
2023-12-27T06:57:34.103Z,98.778
2023-12-27T06:58:33.400Z,98.738
2023-12-27T06:59:33.178Z,98.688
2023-12-27T07:00:34.228Z,98.683
2023-12-27T07:01:33.497Z,98.656
2023-12-27T07:02:33.727Z,98.580
2023-12-27T07:03:34.377Z,98.524
2023-12-27T07:04:33.613Z,98.469
2023-12-27T07:06:33.400Z,98.425
2023-12-27T07:07:33.799Z,98.425
2023-12-27T07:09:33.834Z,98.370
2023-12-27T07:10:33.922Z,98.370
2023-12-27T07:11:33.774Z,98.374
2023-12-27T07:12:33.757Z,98.360
2023-12-27T07:13:33.949Z,98.284
2023-12-27T07:14:33.814Z,98.276
2023-12-27T07:15:34.090Z,98.273
2023-12-27T07:16:33.102Z,98.204
2023-12-27T07:17:34.255Z,98.267
2023-12-27T07:18:33.946Z,98.240
2023-12-27T07:19:34.729Z,98.227
2023-12-27T07:20:34.071Z,98.192
2023-12-27T07:21:34.144Z,98.208
2023-12-27T07:22:37.002Z,98.189
2023-12-27T07:24:34.312Z,98.135
2023-12-27T07:25:33.447Z,98.133
2023-12-27T07:26:33.333Z,98.126
2023-12-27T07:27:33.564Z,98.097
2023-12-27T07:28:33.694Z,98.032
2023-12-27T07:29:33.633Z,98.053
2023-12-27T07:30:33.986Z,98.080
2023-12-27T07:31:33.501Z,97.985
2023-12-27T07:32:33.756Z,97.931
2023-12-27T07:33:34.265Z,97.899
2023-12-27T07:34:34.062Z,97.882
2023-12-27T07:35:33.321Z,97.798
2023-12-27T07:36:33.235Z,97.773
2023-12-27T07:37:33.204Z,97.738
2023-12-27T07:38:34.017Z,97.807
2023-12-27T07:39:34.262Z,97.836
2023-12-27T07:40:33.476Z,97.750
2023-12-27T07:41:33.318Z,97.750
2023-12-27T07:42:33.249Z,97.832
2023-12-27T07:45:34.008Z,97.952
2023-12-27T07:46:33.146Z,97.933
2023-12-27T07:47:34.187Z,97.994
2023-12-27T07:48:33.505Z,98.046
2023-12-27T07:49:34.410Z,97.985
2023-12-27T07:51:33.819Z,98.034
2023-12-27T07:52:34.082Z,98.074
2023-12-27T07:53:34.178Z,98.061
2023-12-27T07:54:33.327Z,98.068
2023-12-27T07:55:33.401Z,98.114
2023-12-27T07:56:33.371Z,98.206
2023-12-27T07:57:33.600Z,98.187
2023-12-27T07:58:33.700Z,98.189
2023-12-27T07:59:33.761Z,98.213
2023-12-27T08:00:34.007Z,98.211
2023-12-27T08:01:34.935Z,98.236
2023-12-27T08:02:34.075Z,98.273
2023-12-27T08:03:34.312Z,98.295
2023-12-27T08:06:36.531Z,98.400
2023-12-27T08:07:34.028Z,98.347
2023-12-27T08:09:34.217Z,98.397
2023-12-27T08:11:33.151Z,98.314
2023-12-27T08:12:34.226Z,98.269
2023-12-27T08:13:33.703Z,98.227
2023-12-27T08:14:33.590Z,98.072
2023-12-27T08:15:33.603Z,97.950
2023-12-27T08:16:33.694Z,97.832
2023-12-27T08:19:33.855Z,97.679
2023-12-27T08:20:34.997Z,97.613
2023-12-27T08:21:34.091Z,97.593
2023-12-27T08:22:34.032Z,97.624
2023-12-27T08:23:33.921Z,97.241
2023-12-27T08:24:33.877Z,97.138
2023-12-27T08:25:34.038Z,96.882
2023-12-27T08:26:33.852Z,96.773
2023-12-27T08:27:34.075Z,96.655
2023-12-27T08:28:33.204Z,96.672
2023-12-27T08:29:34.107Z,96.510
2023-12-27T08:30:34.612Z,96.607
2023-12-27T08:31:34.103Z,96.522
2023-12-27T08:32:33.393Z,96.750
2023-12-27T08:33:33.748Z,96.731
2023-12-27T08:34:34.477Z,96.657
2023-12-27T08:35:33.660Z,96.586
2023-12-27T08:36:33.840Z,96.537
2023-12-27T08:37:33.201Z,96.493
2023-12-27T08:38:33.652Z,96.441
2023-12-27T08:39:34.058Z,96.382
2023-12-27T08:40:34.176Z,96.481
2023-12-27T08:42:34.197Z,96.171
2023-12-27T08:43:33.428Z,96.167
2023-12-27T08:47:33.544Z,96.024
2023-12-27T08:48:34.610Z,95.930
2023-12-27T08:49:33.652Z,96.024
2023-12-27T08:50:33.118Z,95.907
2023-12-27T08:51:34.250Z,95.789
2023-12-27T08:52:33.150Z,95.864
2023-12-27T08:53:34.002Z,95.774
2023-12-27T08:54:33.977Z,95.749
2023-12-27T08:55:34.117Z,95.835
2023-12-27T08:56:33.997Z,95.743
2023-12-27T08:57:37.827Z,95.690
2023-12-27T09:00:33.656Z,95.133
2023-12-27T09:01:34.033Z,94.858
2023-12-27T09:02:34.008Z,94.864
2023-12-27T09:03:34.506Z,94.757
2023-12-27T09:05:33.421Z,95.068
2023-12-27T09:06:34.043Z,94.618
2023-12-27T09:07:33.354Z,94.931
2023-12-27T09:10:33.705Z,94.174
2023-12-27T09:11:45.541Z,94.166
2023-12-27T09:12:33.709Z,94.200
2023-12-27T09:13:33.656Z,94.082
2023-12-27T09:14:33.596Z,93.949
2023-12-27T09:15:33.787Z,93.805
2023-12-27T09:16:33.933Z,93.620
2023-12-27T09:17:34.085Z,94.093
2023-12-27T09:18:33.717Z,94.097
2023-12-27T09:19:34.530Z,93.937
2023-12-27T09:20:33.733Z,93.399
2023-12-27T09:21:34.395Z,93.456
2023-12-27T09:22:33.856Z,93.403
2023-12-27T09:23:33.975Z,93.195
2023-12-27T09:24:34.014Z,93.205
2023-12-27T09:25:34.165Z,92.972
2023-12-27T09:26:33.414Z,93.178
2023-12-27T09:27:33.334Z,93.090
2023-12-27T09:28:33.363Z,93.073
2023-12-27T09:29:33.176Z,93.075
2023-12-27T09:30:34.603Z,93.062
2023-12-27T09:31:34.380Z,92.970
2023-12-27T09:32:34.455Z,92.672
2023-12-27T09:34:33.940Z,92.749
2023-12-27T09:35:33.265Z,92.453
2023-12-27T09:36:33.372Z,92.566
2023-12-27T09:37:33.442Z,92.585
2023-12-27T09:38:33.440Z,92.011
2023-12-27T09:39:33.620Z,92.203
2023-12-27T09:40:33.571Z,92.186
2023-12-27T09:41:33.846Z,91.629
2023-12-27T09:42:34.198Z,91.608
2023-12-27T09:43:33.490Z,91.456
2023-12-27T09:44:33.397Z,91.179
2023-12-27T09:45:33.482Z,90.723
2023-12-27T09:46:33.498Z,91.374
2023-12-27T09:47:33.666Z,91.164
2023-12-27T09:48:34.423Z,91.169
2023-12-27T09:49:34.290Z,90.872
2023-12-27T09:50:33.707Z,91.000
2023-12-27T09:51:34.030Z,90.128
2023-12-27T09:52:33.294Z,89.830
2023-12-27T09:53:33.319Z,90.122
2023-12-27T09:54:33.331Z,89.560
2023-12-27T09:55:33.528Z,89.579
2023-12-27T09:56:33.464Z,90.038
2023-12-27T09:57:33.402Z,89.710
2023-12-27T09:58:33.521Z,89.129
2023-12-27T09:59:33.471Z,89.295
2023-12-27T10:00:33.970Z,89.649
2023-12-27T10:01:33.327Z,88.966
2023-12-27T10:02:33.523Z,88.829
2023-12-27T10:03:33.917Z,88.776
2023-12-27T10:04:33.178Z,88.285
2023-12-27T10:05:34.297Z,88.163
2023-12-27T10:06:33.577Z,87.977
2023-12-27T10:07:33.584Z,87.948
2023-12-27T10:08:33.793Z,87.351
2023-12-27T10:09:33.946Z,87.330
2023-12-27T10:10:34.646Z,86.521
2023-12-27T10:11:33.471Z,86.884
2023-12-27T10:12:33.383Z,87.547
2023-12-27T10:13:33.406Z,87.263
2023-12-27T10:15:34.757Z,86.029
2023-12-27T10:16:33.722Z,86.470
2023-12-27T10:17:33.646Z,86.378
2023-12-27T10:18:34.043Z,86.479
2023-12-27T10:19:33.742Z,86.741
2023-12-27T10:20:33.921Z,86.464
2023-12-27T10:21:34.097Z,86.760
2023-12-27T10:22:33.260Z,86.350
2023-12-27T10:23:34.124Z,86.586
2023-12-27T10:24:33.770Z,86.212
2023-12-27T10:25:34.248Z,86.609
2023-12-27T10:26:33.207Z,86.182
2023-12-27T10:27:34.330Z,86.481
2023-12-27T10:29:33.453Z,86.136
2023-12-27T10:30:33.948Z,86.262
2023-12-27T10:31:33.737Z,86.052
2023-12-27T10:32:34.295Z,86.004
2023-12-27T10:33:36.911Z,85.642
2023-12-27T10:36:34.042Z,84.877
2023-12-27T10:37:33.073Z,85.033
2023-12-27T10:38:34.132Z,84.856
2023-12-27T10:39:33.293Z,85.014
2023-12-27T10:40:33.343Z,84.749
2023-12-27T10:42:33.314Z,84.440
2023-12-27T10:43:33.591Z,84.499
2023-12-27T10:44:33.422Z,83.836
2023-12-27T10:45:33.379Z,83.372
2023-12-27T10:46:33.430Z,83.069
2023-12-27T10:47:33.367Z,83.567
2023-12-27T10:48:34.255Z,82.674
2023-12-27T10:50:33.342Z,82.653
2023-12-27T10:51:35.633Z,82.066
2023-12-27T10:52:33.783Z,82.464
2023-12-27T10:54:33.748Z,82.548
2023-12-27T10:55:33.803Z,81.066
2023-12-27T10:56:33.856Z,81.589
2023-12-27T10:57:36.676Z,81.526
2023-12-27T10:59:33.673Z,80.799
2023-12-27T11:00:33.980Z,80.219
2023-12-27T11:01:33.600Z,80.112
2023-12-27T11:02:34.045Z,80.652
2023-12-27T11:03:37.506Z,80.807
2023-12-27T11:05:33.608Z,80.200
2023-12-27T11:06:34.143Z,79.958
2023-12-27T11:07:33.312Z,80.612
2023-12-27T11:08:33.206Z,80.063
2023-12-27T11:09:33.505Z,80.343
2023-12-27T11:10:33.625Z,80.263
2023-12-27T11:11:33.674Z,80.234
2023-12-27T11:12:33.744Z,80.421
2023-12-27T11:13:33.756Z,79.204
2023-12-27T11:14:33.688Z,79.739
2023-12-27T11:15:34.567Z,79.046
2023-12-27T11:16:33.510Z,78.899
2023-12-27T11:19:34.316Z,79.584
2023-12-27T11:20:33.316Z,79.082
2023-12-27T11:21:35.965Z,79.235
2023-12-27T11:22:33.255Z,78.758
2023-12-27T11:23:34.143Z,79.050
2023-12-27T11:24:34.253Z,78.743
2023-12-27T11:25:33.428Z,78.295
2023-12-27T11:26:33.278Z,79.159
2023-12-27T11:27:36.332Z,79.033
2023-12-27T11:29:33.292Z,78.474
2023-12-27T11:30:33.835Z,78.239
2023-12-27T11:31:34.557Z,78.901
2023-12-27T11:32:33.955Z,78.211
2023-12-27T11:33:39.437Z,78.951
2023-12-27T11:35:34.228Z,78.834
2023-12-27T11:36:33.390Z,79.096
2023-12-27T11:37:33.711Z,79.149
2023-12-27T11:38:33.687Z,79.212
2023-12-27T11:39:33.652Z,79.113
2023-12-27T11:40:34.054Z,79.237
2023-12-27T11:41:33.360Z,78.979
2023-12-27T11:42:33.677Z,79.815
2023-12-27T11:43:33.831Z,79.330
2023-12-27T11:44:33.783Z,79.231
2023-12-27T11:45:33.984Z,79.567
2023-12-27T11:46:34.049Z,79.449
2023-12-27T11:47:34.155Z,79.689
2023-12-27T11:48:33.863Z,79.266
2023-12-27T11:49:33.429Z,78.806
2023-12-27T11:50:33.779Z,78.792
2023-12-27T11:51:34.327Z,78.970
2023-12-27T11:52:33.568Z,79.311
2023-12-27T11:53:33.409Z,79.122
2023-12-27T11:54:33.244Z,79.079
2023-12-27T11:55:33.413Z,78.745
2023-12-27T11:58:33.228Z,78.960
2023-12-27T11:59:34.041Z,79.122
2023-12-27T12:00:33.998Z,79.296
2023-12-27T12:01:34.224Z,79.206
2023-12-27T12:02:34.025Z,79.210
2023-12-27T12:03:33.914Z,79.378
2023-12-27T12:04:34.516Z,79.338
2023-12-27T12:06:34.340Z,79.348
2023-12-27T12:07:33.476Z,79.456
2023-12-27T12:08:33.455Z,78.905
2023-12-27T12:09:33.550Z,78.949
2023-12-27T12:10:33.830Z,79.264
2023-12-27T12:11:33.776Z,79.105
2023-12-27T12:12:34.148Z,78.993
2023-12-27T12:13:33.233Z,79.203
2023-12-27T12:14:34.169Z,79.021
2023-12-27T12:15:34.069Z,78.859
2023-12-27T12:18:34.991Z,79.245
2023-12-27T12:19:33.703Z,78.846
2023-12-27T12:20:33.210Z,78.846
2023-12-27T12:21:34.164Z,78.703
2023-12-27T12:22:33.224Z,79.187
2023-12-27T12:23:33.429Z,78.529
2023-12-27T12:24:33.785Z,78.411
2023-12-27T12:25:33.348Z,78.424
2023-12-27T12:26:35.706Z,78.304
2023-12-27T12:27:34.131Z,78.298
2023-12-27T12:30:34.085Z,78.485
2023-12-27T12:31:34.254Z,78.468
2023-12-27T12:32:33.722Z,78.192
2023-12-27T12:33:34.866Z,78.464
2023-12-27T12:35:33.869Z,78.726
2023-12-27T12:36:33.817Z,78.813
2023-12-27T12:37:33.949Z,78.865
2023-12-27T12:38:33.830Z,78.659
2023-12-27T12:41:33.238Z,78.810
2023-12-27T12:42:34.274Z,78.897
2023-12-27T12:43:33.248Z,78.871
2023-12-27T12:44:36.317Z,78.804
2023-12-27T12:45:33.578Z,78.667
2023-12-27T12:46:33.761Z,78.667
2023-12-27T12:47:33.725Z,78.524
2023-12-27T12:48:34.661Z,78.680
2023-12-27T12:49:33.701Z,78.833
2023-12-27T12:50:34.213Z,78.958
2023-12-27T12:51:33.391Z,78.672
2023-12-27T12:52:33.436Z,78.661
2023-12-27T12:53:33.412Z,79.012
2023-12-27T12:55:33.770Z,79.246
2023-12-27T12:56:33.678Z,79.086
2023-12-27T12:57:33.450Z,78.857
2023-12-27T12:58:33.678Z,78.722
2023-12-27T12:59:34.028Z,78.823
2023-12-27T13:00:33.624Z,78.567
2023-12-27T13:01:34.047Z,79.147
2023-12-27T13:02:33.108Z,79.023
2023-12-27T13:03:33.504Z,78.627
2023-12-27T13:04:33.800Z,78.710
2023-12-27T13:05:34.003Z,78.840
2023-12-27T13:06:33.556Z,78.499
2023-12-27T13:07:33.875Z,78.636
2023-12-27T13:08:33.715Z,78.844
2023-12-27T13:09:33.902Z,78.665
2023-12-27T13:10:33.900Z,78.680
2023-12-27T13:11:33.745Z,78.768
2023-12-27T13:12:33.675Z,78.705
2023-12-27T13:13:33.764Z,78.911
2023-12-27T13:14:33.600Z,78.470
2023-12-27T13:16:33.576Z,78.791
2023-12-27T13:17:34.053Z,78.806
2023-12-27T13:18:33.688Z,78.960
2023-12-27T13:19:34.449Z,78.499
2023-12-27T13:20:33.509Z,78.701
2023-12-27T13:21:33.624Z,78.638
2023-12-27T13:22:33.701Z,78.695
2023-12-27T13:23:33.664Z,78.636
2023-12-27T13:24:33.770Z,78.689
2023-12-27T13:25:34.114Z,78.821
2023-12-27T13:26:34.092Z,78.812
2023-12-27T13:27:34.242Z,78.844
2023-12-27T13:28:33.287Z,78.777
2023-12-27T13:29:33.307Z,78.764
2023-12-27T13:30:33.954Z,78.899
2023-12-27T13:31:34.158Z,78.646
2023-12-27T13:32:33.655Z,78.655
2023-12-27T13:33:35.111Z,78.792
2023-12-27T13:35:33.771Z,78.560
2023-12-27T13:36:34.018Z,78.600
2023-12-27T13:37:34.213Z,78.510
2023-12-27T13:38:33.209Z,78.518
2023-12-27T13:39:33.446Z,78.358
2023-12-27T13:40:33.502Z,78.533
2023-12-27T13:41:33.369Z,78.432
2023-12-27T13:42:33.435Z,78.701
2023-12-27T13:43:33.515Z,78.659
2023-12-27T13:44:33.450Z,78.506
2023-12-27T13:45:33.766Z,78.773